PWSweather.com
Personal Weather Stations
Station Observations
WATERF01
WaterfordIE

WaterfordIE

Lat: 52.2412507, Lon: -7.1414691

Elevation: 65

Station Type: Davis Vantage Vue

www.waterfordweather.com

High Low Average
Temperature 66.9°F19.4°C 55.2°F12.9°C 60.6°F15.9°C
Dew Point 58.8°F14.9°C 50.2°F10.1°C 54.7°F12.6°C
Winds 6.9 mph 11.1 kmh Calm Calm 2.0 mph WSW3.2 kmh WSW
Wind Gusts 12.7 mph20.4 kmh -- 4.0 mph6.4 kmh
Humidity 87% 73% 81%
Pressure 30.14 in1020.7 mb 30.02 in1016.6 mb -
Precipitation 0.00 in0.0 mm - -
Hour Temp Dew Point Humidity Winds Wind Gusts Pressure Precip Precip Rate Daily Precip Total
12:00 AM 56.7°F13.7°C 50.9°F10.5°C 81% 5.8 mph NW9.3 kmh NW 9.2 mph14.8 kmh 30.14 in1020.7 mb - 0.00 in0.0 mm 0.00 in0.0 mm
12:10 AM 56.6°F13.7°C 51.2°F10.7°C 82% 3.5 mph NW5.6 kmh NW 5.8 mph9.3 kmh 30.14 in1020.7 mb - 0.00 in0.0 mm 0.00 in0.0 mm
12:20 AM 56.5°F13.6°C 51.1°F10.6°C 82% 4.6 mph NW7.4 kmh NW 11.5 mph18.5 kmh 30.14 in1020.7 mb - 0.00 in0.0 mm 0.00 in0.0 mm
12:30 AM 56.4°F13.6°C 51.0°F10.6°C 82% 5.8 mph NW9.3 kmh NW 8.1 mph13.0 kmh 30.14 in1020.7 mb - 0.00 in0.0 mm 0.00 in0.0 mm
12:40 AM 56.3°F13.5°C 50.9°F10.5°C 82% 5.8 mph NW9.3 kmh NW 8.1 mph13.0 kmh 30.14 in1020.7 mb - 0.00 in0.0 mm 0.00 in0.0 mm
12:50 AM 56.3°F13.5°C 50.9°F10.5°C 82% 4.6 mph NW7.4 kmh NW 8.1 mph13.0 kmh 30.14 in1020.7 mb - 0.00 in0.0 mm 0.00 in0.0 mm
01:00 AM 56.3°F13.5°C 50.5°F10.3°C 81% 5.8 mph NW9.3 kmh NW 8.1 mph13.0 kmh 30.13 in1020.3 mb - 0.00 in0.0 mm 0.00 in0.0 mm
01:10 AM 56.3°F13.5°C 50.5°F10.3°C 81% 3.5 mph NW5.6 kmh NW 8.1 mph13.0 kmh 30.14 in1020.7 mb - 0.00 in0.0 mm 0.00 in0.0 mm
01:20 AM 56.2°F13.4°C 50.8°F10.4°C 82% 4.6 mph NW7.4 kmh NW 8.1 mph13.0 kmh 30.14 in1020.7 mb - 0.00 in0.0 mm 0.00 in0.0 mm
01:30 AM 56.1°F13.4°C 50.7°F10.4°C 82% 3.5 mph NW5.6 kmh NW 5.8 mph9.3 kmh 30.14 in1020.7 mb - 0.00 in0.0 mm 0.00 in0.0 mm
01:40 AM 56.1°F13.4°C 50.7°F10.4°C 82% 2.3 mph NW3.7 kmh NW 5.8 mph9.3 kmh 30.13 in1020.3 mb - 0.00 in0.0 mm 0.00 in0.0 mm
01:50 AM 56.0°F13.3°C 50.6°F10.3°C 82% 3.5 mph NW5.6 kmh NW 5.8 mph9.3 kmh 30.13 in1020.3 mb - 0.00 in0.0 mm 0.00 in0.0 mm
02:00 AM 55.9°F13.3°C 50.5°F10.3°C 82% 3.5 mph NW5.6 kmh NW 5.8 mph9.3 kmh 30.13 in1020.3 mb - 0.00 in0.0 mm 0.00 in0.0 mm
02:10 AM 55.7°F13.2°C 50.3°F10.2°C 82% 2.3 mph NW3.7 kmh NW 4.6 mph7.4 kmh 30.13 in1020.3 mb - 0.00 in0.0 mm 0.00 in0.0 mm
02:20 AM 55.7°F13.2°C 50.3°F10.2°C 82% Calm Calm -- 30.13 in1020.3 mb - 0.00 in0.0 mm 0.00 in0.0 mm
02:30 AM 55.6°F13.1°C 50.2°F10.1°C 82% Calm Calm -- 30.13 in1020.3 mb - 0.00 in0.0 mm 0.00 in0.0 mm
02:40 AM 55.6°F13.1°C 50.5°F10.3°C 83% Calm Calm -- 30.13 in1020.3 mb - 0.00 in0.0 mm 0.00 in0.0 mm
02:50 AM 55.5°F13.1°C 50.4°F10.2°C 83% Calm Calm -- 30.13 in1020.3 mb - 0.00 in0.0 mm 0.00 in0.0 mm
03:00 AM 55.5°F13.1°C 50.4°F10.2°C 83% Calm Calm -- 30.13 in1020.3 mb - 0.00 in0.0 mm 0.00 in0.0 mm
03:10 AM 55.5°F13.1°C 50.4°F10.2°C 83% Calm Calm -- 30.13 in1020.3 mb - 0.00 in0.0 mm 0.00 in0.0 mm
03:20 AM 55.7°F13.2°C 50.3°F10.2°C 82% Calm Calm -- 30.13 in1020.3 mb - 0.00 in0.0 mm 0.00 in0.0 mm
03:30 AM 55.7°F13.2°C 50.3°F10.2°C 82% Calm Calm -- 30.13 in1020.3 mb - 0.00 in0.0 mm 0.00 in0.0 mm
03:40 AM 55.7°F13.2°C 50.3°F10.2°C 82% Calm Calm -- 30.12 in1020.0 mb - 0.00 in0.0 mm 0.00 in0.0 mm
03:50 AM 55.7°F13.2°C 50.3°F10.2°C 82% Calm Calm -- 30.13 in1020.3 mb - 0.00 in0.0 mm 0.00 in0.0 mm
04:00 AM 55.5°F13.1°C 50.4°F10.2°C 83% Calm Calm -- 30.13 in1020.3 mb - 0.00 in0.0 mm 0.00 in0.0 mm
04:10 AM 55.4°F13.0°C 50.6°F10.3°C 84% Calm Calm -- 30.13 in1020.3 mb - 0.00 in0.0 mm 0.00 in0.0 mm
04:20 AM 55.3°F12.9°C 50.5°F10.3°C 84% Calm Calm -- 30.13 in1020.3 mb - 0.00 in0.0 mm 0.00 in0.0 mm
04:30 AM 55.2°F12.9°C 50.4°F10.2°C 84% Calm Calm -- 30.13 in1020.3 mb - 0.00 in0.0 mm 0.00 in0.0 mm
04:40 AM 55.4°F13.0°C 50.3°F10.2°C 83% Calm Calm -- 30.13 in1020.3 mb - 0.00 in0.0 mm 0.00 in0.0 mm
04:50 AM 55.5°F13.1°C 50.7°F10.4°C 84% Calm Calm -- 30.13 in1020.3 mb - 0.00 in0.0 mm 0.00 in0.0 mm
05:00 AM 55.4°F13.0°C 50.7°F10.4°C 84% Calm Calm -- 30.13 in1020.3 mb - 0.00 in0.0 mm 0.00 in0.0 mm
05:10 AM 55.3°F12.9°C 50.9°F10.5°C 85% Calm Calm -- 30.13 in1020.3 mb - 0.00 in0.0 mm 0.00 in0.0 mm
05:20 AM 55.3°F12.9°C 50.9°F10.5°C 85% Calm Calm -- 30.13 in1020.3 mb - 0.00 in0.0 mm 0.00 in0.0 mm
05:30 AM 55.3°F12.9°C 51.2°F10.7°C 86% Calm Calm -- 30.13 in1020.3 mb - 0.00 in0.0 mm 0.00 in0.0 mm
05:40 AM 55.4°F13.0°C 51.0°F10.6°C 85% Calm Calm -- 30.14 in1020.7 mb - 0.00 in0.0 mm 0.00 in0.0 mm
05:50 AM 55.7°F13.2°C 51.3°F10.7°C 85% Calm Calm -- 30.14 in1020.7 mb - 0.00 in0.0 mm 0.00 in0.0 mm
06:00 AM 55.9°F13.3°C 51.1°F10.6°C 84% Calm Calm -- 30.14 in1020.7 mb - 0.00 in0.0 mm 0.00 in0.0 mm
06:10 AM 56.1°F13.4°C 51.0°F10.6°C 83% Calm Calm -- 30.14 in1020.7 mb - 0.00 in0.0 mm 0.00 in0.0 mm
06:20 AM 56.3°F13.5°C 50.9°F10.5°C 82% Calm Calm -- 30.14 in1020.7 mb - 0.00 in0.0 mm 0.00 in0.0 mm
06:30 AM 56.6°F13.7°C 51.2°F10.7°C 82% Calm Calm -- 30.14 in1020.7 mb - 0.00 in0.0 mm 0.00 in0.0 mm
06:40 AM 56.7°F13.7°C 51.3°F10.7°C 82% Calm Calm -- 30.14 in1020.7 mb - 0.00 in0.0 mm 0.00 in0.0 mm
06:50 AM 57.2°F14.0°C 51.4°F10.8°C 81% Calm Calm -- 30.14 in1020.7 mb - 0.00 in0.0 mm 0.00 in0.0 mm
07:00 AM 57.6°F14.2°C 51.8°F11.0°C 81% Calm Calm -- 30.14 in1020.7 mb - 0.00 in0.0 mm 0.00 in0.0 mm
07:10 AM 58.0°F14.4°C 52.2°F11.2°C 81% Calm Calm -- 30.13 in1020.3 mb - 0.00 in0.0 mm 0.00 in0.0 mm
07:20 AM 58.8°F14.9°C 52.6°F11.4°C 80% 1.2 mph SE1.9 kmh SE 2.3 mph3.7 kmh 30.13 in1020.3 mb - 0.00 in0.0 mm 0.00 in0.0 mm
07:30 AM 59.4°F15.2°C 53.2°F11.8°C 80% 1.2 mph SW1.9 kmh SW 5.8 mph9.3 kmh 30.13 in1020.3 mb - 0.00 in0.0 mm 0.00 in0.0 mm
07:40 AM 59.8°F15.4°C 53.6°F12.0°C 80% Calm Calm 1.2 mph1.9 kmh 30.13 in1020.3 mb - 0.00 in0.0 mm 0.00 in0.0 mm
07:50 AM 60.2°F15.7°C 54.0°F12.2°C 80% 1.2 mph S1.9 kmh S 2.3 mph3.7 kmh 30.13 in1020.3 mb - 0.00 in0.0 mm 0.00 in0.0 mm
08:00 AM 60.0°F15.6°C 53.5°F11.9°C 79% 1.2 mph SW1.9 kmh SW 2.3 mph3.7 kmh 30.13 in1020.3 mb - 0.00 in0.0 mm 0.00 in0.0 mm
08:10 AM 60.2°F15.7°C 53.7°F12.1°C 79% Calm Calm -- 30.13 in1020.3 mb - 0.00 in0.0 mm 0.00 in0.0 mm
08:20 AM 60.3°F15.7°C 53.8°F12.1°C 79% Calm Calm -- 30.14 in1020.7 mb - 0.00 in0.0 mm 0.00 in0.0 mm
08:30 AM 60.3°F15.7°C 53.8°F12.1°C 79% Calm Calm -- 30.14 in1020.7 mb - 0.00 in0.0 mm 0.00 in0.0 mm
08:40 AM 60.4°F15.8°C 53.9°F12.2°C 79% Calm Calm 5.8 mph9.3 kmh 30.14 in1020.7 mb - 0.00 in0.0 mm 0.00 in0.0 mm
08:50 AM 59.8°F15.4°C 53.3°F11.8°C 79% Calm Calm 2.3 mph3.7 kmh 30.14 in1020.7 mb - 0.00 in0.0 mm 0.00 in0.0 mm
09:00 AM 59.4°F15.2°C 53.3°F11.8°C 80% 4.6 mph W7.4 kmh W 6.9 mph11.1 kmh 30.14 in1020.7 mb - 0.00 in0.0 mm 0.00 in0.0 mm
09:10 AM 59.2°F15.1°C 53.0°F11.7°C 80% 3.5 mph WNW5.6 kmh WNW 5.8 mph9.3 kmh 30.14 in1020.7 mb - 0.00 in0.0 mm 0.00 in0.0 mm
09:20 AM 59.6°F15.3°C 53.4°F11.9°C 80% Calm Calm 1.2 mph1.9 kmh 30.14 in1020.7 mb - 0.00 in0.0 mm 0.00 in0.0 mm
09:30 AM 59.8°F15.4°C 53.6°F12.0°C 80% 2.3 mph NW3.7 kmh NW 5.8 mph9.3 kmh 30.14 in1020.7 mb - 0.00 in0.0 mm 0.00 in0.0 mm
09:40 AM 60.3°F15.7°C 54.1°F12.3°C 80% 2.3 mph NNW3.7 kmh NNW 5.8 mph9.3 kmh 30.14 in1020.7 mb - 0.00 in0.0 mm 0.00 in0.0 mm
09:50 AM 60.9°F16.1°C 54.3°F12.4°C 79% 1.2 mph WNW1.9 kmh WNW 2.3 mph3.7 kmh 30.14 in1020.7 mb - 0.00 in0.0 mm 0.00 in0.0 mm
10:00 AM 60.9°F16.1°C 54.7°F12.6°C 80% 3.5 mph WNW5.6 kmh WNW 5.8 mph9.3 kmh 30.13 in1020.3 mb - 0.00 in0.0 mm 0.00 in0.0 mm
10:10 AM 60.8°F16.0°C 54.6°F12.6°C 80% 3.5 mph WNW5.6 kmh WNW 5.8 mph9.3 kmh 30.13 in1020.3 mb - 0.00 in0.0 mm 0.00 in0.0 mm
10:20 AM 61.2°F16.2°C 55.0°F12.8°C 80% 1.2 mph NW1.9 kmh NW 2.3 mph3.7 kmh 30.13 in1020.3 mb - 0.00 in0.0 mm 0.00 in0.0 mm
10:30 AM 61.6°F16.4°C 55.7°F13.2°C 81% 2.3 mph NW3.7 kmh NW 4.6 mph7.4 kmh 30.12 in1020.0 mb - 0.00 in0.0 mm 0.00 in0.0 mm
10:40 AM 62.4°F16.9°C 56.1°F13.4°C 80% 5.8 mph NW9.3 kmh NW 11.5 mph18.5 kmh 30.12 in1020.0 mb - 0.00 in0.0 mm 0.00 in0.0 mm
10:50 AM 63.0°F17.2°C 56.4°F13.6°C 79% 2.3 mph WNW3.7 kmh WNW 8.1 mph13.0 kmh 30.12 in1020.0 mb - 0.00 in0.0 mm 0.00 in0.0 mm
11:00 AM 63.2°F17.3°C 56.3°F13.5°C 78% 4.6 mph WNW7.4 kmh WNW 11.5 mph18.5 kmh 30.12 in1020.0 mb - 0.00 in0.0 mm 0.00 in0.0 mm
11:10 AM 63.0°F17.2°C 56.0°F13.3°C 78% 5.8 mph NW9.3 kmh NW 8.1 mph13.0 kmh 30.12 in1020.0 mb - 0.00 in0.0 mm 0.00 in0.0 mm
11:20 AM 63.0°F17.2°C 56.3°F13.5°C 79% 3.5 mph WNW5.6 kmh WNW 5.8 mph9.3 kmh 30.12 in1020.0 mb - 0.00 in0.0 mm 0.00 in0.0 mm
11:30 AM 62.8°F17.1°C 56.2°F13.4°C 79% 3.5 mph NW5.6 kmh NW 5.8 mph9.3 kmh 30.12 in1020.0 mb - 0.00 in0.0 mm 0.00 in0.0 mm
11:40 AM 63.1°F17.3°C 56.2°F13.4°C 78% 2.3 mph WSW3.7 kmh WSW 5.8 mph9.3 kmh 30.12 in1020.0 mb - 0.00 in0.0 mm 0.00 in0.0 mm
11:50 AM 63.5°F17.5°C 55.8°F13.2°C 76% 4.6 mph WNW7.4 kmh WNW 6.9 mph11.1 kmh 30.12 in1020.0 mb - 0.00 in0.0 mm 0.00 in0.0 mm
12:00 PM 63.5°F17.5°C 55.8°F13.2°C 76% 3.5 mph WSW5.6 kmh WSW 5.8 mph9.3 kmh 30.12 in1020.0 mb - 0.00 in0.0 mm 0.00 in0.0 mm
12:10 PM 63.4°F17.4°C 56.1°F13.4°C 77% 3.5 mph WNW5.6 kmh WNW 5.8 mph9.3 kmh 30.12 in1020.0 mb - 0.00 in0.0 mm 0.00 in0.0 mm
12:20 PM 64.0°F17.8°C 57.0°F13.9°C 78% Calm Calm -- 30.11 in1019.6 mb - 0.00 in0.0 mm 0.00 in0.0 mm
12:30 PM 65.7°F18.7°C 57.6°F14.2°C 75% 2.3 mph SSE3.7 kmh SSE 2.3 mph3.7 kmh 30.11 in1019.6 mb - 0.00 in0.0 mm 0.00 in0.0 mm
12:40 PM 66.1°F18.9°C 58.3°F14.6°C 76% 2.3 mph W3.7 kmh W 5.8 mph9.3 kmh 30.11 in1019.6 mb - 0.00 in0.0 mm 0.00 in0.0 mm
12:50 PM 66.9°F19.4°C 58.0°F14.4°C 73% 3.5 mph WSW5.6 kmh WSW 5.8 mph9.3 kmh 30.11 in1019.6 mb - 0.00 in0.0 mm 0.00 in0.0 mm
01:00 PM 66.3°F19.1°C 57.8°F14.3°C 74% 3.5 mph NNW5.6 kmh NNW 5.8 mph9.3 kmh 30.11 in1019.6 mb - 0.00 in0.0 mm 0.00 in0.0 mm
01:10 PM 64.8°F18.2°C 57.1°F13.9°C 76% 4.6 mph NW7.4 kmh NW 11.5 mph18.5 kmh 30.11 in1019.6 mb - 0.00 in0.0 mm 0.00 in0.0 mm
01:20 PM 63.4°F17.4°C 56.8°F13.8°C 79% 4.6 mph W7.4 kmh W 8.1 mph13.0 kmh 30.11 in1019.6 mb - 0.00 in0.0 mm 0.00 in0.0 mm
01:30 PM 63.5°F17.5°C 56.9°F13.8°C 79% 4.6 mph SW7.4 kmh SW 8.1 mph13.0 kmh 30.11 in1019.6 mb - 0.00 in0.0 mm 0.00 in0.0 mm
01:40 PM 63.6°F17.6°C 57.3°F14.1°C 80% 3.5 mph N5.6 kmh N 8.1 mph13.0 kmh 30.11 in1019.6 mb - 0.00 in0.0 mm 0.00 in0.0 mm
01:50 PM 64.3°F17.9°C 57.7°F14.3°C 79% 5.8 mph WSW9.3 kmh WSW 9.2 mph14.8 kmh 30.11 in1019.6 mb - 0.00 in0.0 mm 0.00 in0.0 mm
02:00 PM 66.2°F19.0°C 58.0°F14.4°C 75% 5.8 mph W9.3 kmh W 11.5 mph18.5 kmh 30.11 in1019.6 mb - 0.00 in0.0 mm 0.00 in0.0 mm
02:10 PM 66.2°F19.0°C 57.7°F14.3°C 74% 5.8 mph SW9.3 kmh SW 8.1 mph13.0 kmh 30.11 in1019.6 mb - 0.00 in0.0 mm 0.00 in0.0 mm
02:20 PM 65.5°F18.6°C 57.7°F14.3°C 76% 5.8 mph W9.3 kmh W 12.7 mph20.4 kmh 30.11 in1019.6 mb - 0.00 in0.0 mm 0.00 in0.0 mm
02:30 PM 65.5°F18.6°C 57.7°F14.3°C 76% 4.6 mph WSW7.4 kmh WSW 9.2 mph14.8 kmh 30.10 in1019.3 mb - 0.00 in0.0 mm 0.00 in0.0 mm
02:40 PM 65.1°F18.4°C 57.0°F13.9°C 75% 5.8 mph W9.3 kmh W 9.2 mph14.8 kmh 30.10 in1019.3 mb - 0.00 in0.0 mm 0.00 in0.0 mm
02:50 PM 64.3°F17.9°C 56.9°F13.8°C 77% 6.9 mph WSW11.1 kmh WSW 8.1 mph13.0 kmh 30.10 in1019.3 mb - 0.00 in0.0 mm 0.00 in0.0 mm
03:00 PM 63.9°F17.7°C 56.6°F13.7°C 77% 6.9 mph WSW11.1 kmh WSW 11.5 mph18.5 kmh 30.10 in1019.3 mb - 0.00 in0.0 mm 0.00 in0.0 mm
03:10 PM 64.2°F17.9°C 56.8°F13.8°C 77% 4.6 mph WSW7.4 kmh WSW 6.9 mph11.1 kmh 30.10 in1019.3 mb - 0.00 in0.0 mm 0.00 in0.0 mm
03:20 PM 64.3°F17.9°C 57.0°F13.9°C 77% 6.9 mph WSW11.1 kmh WSW 11.5 mph18.5 kmh 30.10 in1019.3 mb - 0.00 in0.0 mm 0.00 in0.0 mm
03:30 PM 64.8°F18.2°C 57.4°F14.1°C 77% 4.6 mph W7.4 kmh W 9.2 mph14.8 kmh 30.09 in1019.0 mb - 0.00 in0.0 mm 0.00 in0.0 mm
03:40 PM 64.6°F18.1°C 57.2°F14.0°C 77% 4.6 mph WSW7.4 kmh WSW 8.1 mph13.0 kmh 30.09 in1019.0 mb - 0.00 in0.0 mm 0.00 in0.0 mm
03:50 PM 64.7°F18.2°C 58.0°F14.4°C 79% 2.3 mph W3.7 kmh W 5.8 mph9.3 kmh 30.09 in1019.0 mb - 0.00 in0.0 mm 0.00 in0.0 mm
04:00 PM 64.4°F18.0°C 57.7°F14.3°C 79% 2.3 mph W3.7 kmh W 4.6 mph7.4 kmh 30.09 in1019.0 mb - 0.00 in0.0 mm 0.00 in0.0 mm
04:10 PM 64.4°F18.0°C 58.1°F14.5°C 80% 1.2 mph WSW1.9 kmh WSW 4.6 mph7.4 kmh 30.09 in1019.0 mb - 0.00 in0.0 mm 0.00 in0.0 mm
04:20 PM 64.5°F18.1°C 58.2°F14.6°C 80% Calm Calm -- 30.09 in1019.0 mb - 0.00 in0.0 mm 0.00 in0.0 mm
04:30 PM 64.4°F18.0°C 57.7°F14.3°C 79% 3.5 mph NW5.6 kmh NW 5.8 mph9.3 kmh 30.09 in1019.0 mb - 0.00 in0.0 mm 0.00 in0.0 mm
04:40 PM 64.4°F18.0°C 57.7°F14.3°C 79% 2.3 mph W3.7 kmh W 2.3 mph3.7 kmh 30.09 in1019.0 mb - 0.00 in0.0 mm 0.00 in0.0 mm
04:50 PM 64.6°F18.1°C 57.9°F14.4°C 79% 4.6 mph NW7.4 kmh NW 8.1 mph13.0 kmh 30.09 in1019.0 mb - 0.00 in0.0 mm 0.00 in0.0 mm
05:00 PM 64.5°F18.1°C 57.8°F14.3°C 79% 5.8 mph NW9.3 kmh NW 9.2 mph14.8 kmh 30.09 in1019.0 mb - 0.00 in0.0 mm 0.00 in0.0 mm
05:10 PM 64.7°F18.2°C 58.0°F14.4°C 79% 3.5 mph NW5.6 kmh NW 6.9 mph11.1 kmh 30.09 in1019.0 mb - 0.00 in0.0 mm 0.00 in0.0 mm
05:20 PM 64.5°F18.1°C 57.8°F14.3°C 79% 4.6 mph NW7.4 kmh NW 8.1 mph13.0 kmh 30.08 in1018.6 mb - 0.00 in0.0 mm 0.00 in0.0 mm
05:30 PM 64.8°F18.2°C 58.1°F14.5°C 79% 2.3 mph NW3.7 kmh NW 6.9 mph11.1 kmh 30.08 in1018.6 mb - 0.00 in0.0 mm 0.00 in0.0 mm
05:40 PM 65.3°F18.5°C 58.3°F14.6°C 78% 3.5 mph NW5.6 kmh NW 5.8 mph9.3 kmh 30.08 in1018.6 mb - 0.00 in0.0 mm 0.00 in0.0 mm
05:50 PM 66.2°F19.0°C 58.8°F14.9°C 77% 2.3 mph WSW3.7 kmh WSW 5.8 mph9.3 kmh 30.08 in1018.6 mb - 0.00 in0.0 mm 0.00 in0.0 mm
06:00 PM 66.4°F19.1°C 58.6°F14.8°C 76% 3.5 mph WNW5.6 kmh WNW 5.8 mph9.3 kmh 30.07 in1018.3 mb - 0.00 in0.0 mm 0.00 in0.0 mm
06:10 PM 65.8°F18.8°C 58.4°F14.7°C 77% 2.3 mph NW3.7 kmh NW 2.3 mph3.7 kmh 30.07 in1018.3 mb - 0.00 in0.0 mm 0.00 in0.0 mm
06:20 PM 65.7°F18.7°C 58.7°F14.8°C 78% 1.2 mph WSW1.9 kmh WSW 2.3 mph3.7 kmh 30.07 in1018.3 mb - 0.00 in0.0 mm 0.00 in0.0 mm
06:30 PM 65.5°F18.6°C 58.5°F14.7°C 78% 1.2 mph W1.9 kmh W 2.3 mph3.7 kmh 30.07 in1018.3 mb - 0.00 in0.0 mm 0.00 in0.0 mm
06:40 PM 65.2°F18.4°C 58.5°F14.7°C 79% 1.2 mph NW1.9 kmh NW 4.6 mph7.4 kmh 30.07 in1018.3 mb - 0.00 in0.0 mm 0.00 in0.0 mm
06:50 PM 64.9°F18.3°C 58.2°F14.6°C 79% 3.5 mph NW5.6 kmh NW 5.8 mph9.3 kmh 30.07 in1018.3 mb - 0.00 in0.0 mm 0.00 in0.0 mm
07:00 PM 64.4°F18.0°C 58.1°F14.5°C 80% 4.6 mph NW7.4 kmh NW 5.8 mph9.3 kmh 30.07 in1018.3 mb - 0.00 in0.0 mm 0.00 in0.0 mm
07:10 PM 64.2°F17.9°C 58.2°F14.6°C 81% 2.3 mph NW3.7 kmh NW 2.3 mph3.7 kmh 30.08 in1018.6 mb - 0.00 in0.0 mm 0.00 in0.0 mm
07:20 PM 63.8°F17.7°C 57.9°F14.4°C 81% 2.3 mph NW3.7 kmh NW 4.6 mph7.4 kmh 30.07 in1018.3 mb - 0.00 in0.0 mm 0.00 in0.0 mm
07:30 PM 63.6°F17.6°C 58.0°F14.4°C 82% 2.3 mph NW3.7 kmh NW 2.3 mph3.7 kmh 30.07 in1018.3 mb - 0.00 in0.0 mm 0.00 in0.0 mm
07:40 PM 63.5°F17.5°C 57.9°F14.4°C 82% Calm Calm -- 30.07 in1018.3 mb - 0.00 in0.0 mm 0.00 in0.0 mm
07:50 PM 63.5°F17.5°C 57.9°F14.4°C 82% Calm Calm -- 30.06 in1017.9 mb - 0.00 in0.0 mm 0.00 in0.0 mm
08:00 PM 63.4°F17.4°C 57.8°F14.3°C 82% Calm Calm -- 30.06 in1017.9 mb - 0.00 in0.0 mm 0.00 in0.0 mm
08:10 PM 63.2°F17.3°C 58.0°F14.4°C 83% 2.3 mph SE3.7 kmh SE 4.6 mph7.4 kmh 30.06 in1017.9 mb - 0.00 in0.0 mm 0.00 in0.0 mm
08:20 PM 62.5°F16.9°C 57.3°F14.1°C 83% 1.2 mph SSW1.9 kmh SSW 2.3 mph3.7 kmh 30.06 in1017.9 mb - 0.00 in0.0 mm 0.00 in0.0 mm
08:30 PM 62.3°F16.8°C 57.0°F13.9°C 83% Calm Calm -- 30.06 in1017.9 mb - 0.00 in0.0 mm 0.00 in0.0 mm
08:40 PM 62.0°F16.7°C 57.1°F13.9°C 84% Calm Calm -- 30.06 in1017.9 mb - 0.00 in0.0 mm 0.00 in0.0 mm
08:50 PM 61.7°F16.5°C 56.8°F13.8°C 84% Calm Calm -- 30.07 in1018.3 mb - 0.00 in0.0 mm 0.00 in0.0 mm
09:00 PM 61.7°F16.5°C 56.8°F13.8°C 84% Calm Calm -- 30.06 in1017.9 mb - 0.00 in0.0 mm 0.00 in0.0 mm
09:10 PM 61.2°F16.2°C 56.7°F13.7°C 85% Calm Calm -- 30.06 in1017.9 mb - 0.00 in0.0 mm 0.00 in0.0 mm
09:20 PM 60.8°F16.0°C 56.3°F13.5°C 85% Calm Calm 2.3 mph3.7 kmh 30.06 in1017.9 mb - 0.00 in0.0 mm 0.00 in0.0 mm
09:30 PM 60.2°F15.7°C 55.9°F13.3°C 86% Calm Calm -- 30.05 in1017.6 mb - 0.00 in0.0 mm 0.00 in0.0 mm
09:40 PM 59.6°F15.3°C 55.4°F13.0°C 86% Calm Calm -- 30.05 in1017.6 mb - 0.00 in0.0 mm 0.00 in0.0 mm
09:50 PM 59.4°F15.2°C 55.5°F13.1°C 87% Calm Calm -- 30.05 in1017.6 mb - 0.00 in0.0 mm 0.00 in0.0 mm
10:00 PM 59.1°F15.1°C 55.2°F12.9°C 87% Calm Calm -- 30.05 in1017.6 mb - 0.00 in0.0 mm 0.00 in0.0 mm
10:10 PM 58.7°F14.8°C 54.9°F12.7°C 87% Calm Calm -- 30.05 in1017.6 mb - 0.00 in0.0 mm 0.00 in0.0 mm
10:20 PM 58.6°F14.8°C 54.7°F12.6°C 87% Calm Calm -- 30.05 in1017.6 mb - 0.00 in0.0 mm 0.00 in0.0 mm
10:30 PM 59.1°F15.1°C 55.2°F12.9°C 87% Calm Calm 2.3 mph3.7 kmh 30.05 in1017.6 mb - 0.00 in0.0 mm 0.00 in0.0 mm
10:40 PM 59.4°F15.2°C 55.2°F12.9°C 86% Calm Calm -- 30.05 in1017.6 mb - 0.00 in0.0 mm 0.00 in0.0 mm
10:50 PM 59.5°F15.3°C 55.3°F12.9°C 86% Calm Calm -- 30.05 in1017.6 mb - 0.00 in0.0 mm 0.00 in0.0 mm
11:00 PM 59.6°F15.3°C 55.4°F13.0°C 86% Calm Calm -- 30.04 in1017.3 mb - 0.00 in0.0 mm 0.00 in0.0 mm
11:10 PM 59.6°F15.3°C 55.4°F13.0°C 86% Calm Calm -- 30.03 in1016.9 mb - 0.00 in0.0 mm 0.00 in0.0 mm
11:20 PM 59.5°F15.3°C 55.3°F12.9°C 86% Calm Calm -- 30.03 in1016.9 mb - 0.00 in0.0 mm 0.00 in0.0 mm
11:30 PM 59.5°F15.3°C 55.3°F12.9°C 86% Calm Calm -- 30.02 in1016.6 mb - 0.00 in0.0 mm 0.00 in0.0 mm
11:40 PM 59.6°F15.3°C 55.4°F13.0°C 86% 2.3 mph WSW3.7 kmh WSW 4.6 mph7.4 kmh 30.02 in1016.6 mb - 0.00 in0.0 mm 0.00 in0.0 mm
11:50 PM 60.4°F15.8°C 55.9°F13.3°C 85% 2.3 mph SSE3.7 kmh SSE 5.8 mph9.3 kmh 30.02 in1016.6 mb - 0.00 in0.0 mm 0.00 in0.0 mm